Time;durP1;ratioP1;P1;durP2;ratioP2;P2;SDS_P1;SDS_P2;PMS_P1;PMS_P2;Temp;Humidity;BMP_temperature;BMP_pressure;BME280_temperature;BME280_humidity;BME280_pressure;Samples;Min_cycle;Max_cycle;Signal;HPM_P1;HPM_P2
2024/03/12 00:01:22;;;;;;;17.77;13.15;;;21.00;51.00;;;;;;10389374;28;20046;-53
2024/03/12 00:06:25;;;;;;;17.63;13.07;;;21.00;50.90;;;;;;10392287;28;20053;-52
2024/03/12 00:11:28;;;;;;;17.02;12.65;;;20.90;51.10;;;;;;10394905;28;20042;-53
2024/03/12 00:16:30;;;;;;;16.38;12.35;;;20.80;51.20;;;;;;10388958;28;20579;-55
2024/03/12 00:21:31;;;;;;;15.48;12.13;;;20.70;51.40;;;;;;10391583;28;20140;-54
2024/03/12 00:26:34;;;;;;;16.75;12.60;;;20.80;51.20;;;;;;10399255;28;20129;-52
2024/03/12 00:31:38;;;;;;;15.98;11.70;;;20.80;51.10;;;;;;10396326;28;20463;-51
2024/03/12 00:36:41;;;;;;;14.88;11.68;;;20.70;51.20;;;;;;10399999;28;20049;-52
2024/03/12 00:41:44;;;;;;;14.00;11.52;;;20.70;51.20;;;;;;10398092;28;20049;-52
2024/03/12 00:46:47;;;;;;;14.38;11.50;;;20.80;51.00;;;;;;10394758;28;20046;-54
2024/03/12 00:51:49;;;;;;;14.48;11.00;;;20.60;51.30;;;;;;10395353;28;20084;-53
2024/03/12 00:56:52;;;;;;;14.65;11.50;;;20.50;51.50;;;;;;10404434;28;20042;-52
2024/03/12 01:01:54;;;;;;;13.68;11.23;;;20.40;51.60;;;;;;10406965;28;20056;-54
2024/03/12 01:06:56;;;;;;;14.73;10.77;;;20.40;51.70;;;;;;10404302;28;20084;-51
2024/03/12 01:11:59;;;;;;;14.10;10.80;;;20.30;51.70;;;;;;10396922;28;20144;-56
2024/03/12 01:17:01;;;;;;;13.43;10.20;;;20.30;52.00;;;;;;10395381;28;20084;-52
2024/03/12 01:22:04;;;;;;;13.65;10.73;;;20.30;51.90;;;;;;10392127;28;20073;-52
2024/03/12 01:27:07;;;;;;;12.57;10.38;;;20.20;51.90;;;;;;10399654;28;20054;-49
2024/03/12 01:32:09;;;;;;;13.98;10.18;;;20.20;51.80;;;;;;10400163;28;20133;-53
2024/03/12 01:37:15;;;;;;;14.18;10.30;;;20.20;51.80;;;;;;10403165;28;20045;-51
2024/03/12 01:42:18;;;;;;;13.50;9.65;;;20.20;51.90;;;;;;10404214;28;20081;-51
2024/03/12 01:47:20;;;;;;;12.63;9.32;;;20.10;52.10;;;;;;10406506;28;20124;-52
2024/03/12 01:52:23;;;;;;;12.02;9.63;;;20.00;52.10;;;;;;10402460;28;20141;-52
2024/03/12 01:57:25;;;;;;;11.85;9.38;;;20.00;52.10;;;;;;10399740;28;20089;-54
2024/03/12 02:02:27;;;;;;;10.50;8.77;;;19.90;52.10;;;;;;10405166;28;20129;-49
2024/03/12 02:07:29;;;;;;;11.05;8.68;;;19.90;52.30;;;;;;10400522;28;20133;-50
2024/03/12 02:12:32;;;;;;;11.10;8.70;;;19.90;52.30;;;;;;10400312;28;20045;-49
2024/03/12 02:17:33;;;;;;;12.15;8.68;;;19.90;52.20;;;;;;10400418;28;20140;-51
2024/03/12 02:22:35;;;;;;;9.27;7.93;;;19.80;52.40;;;;;;10400250;28;20049;-51
2024/03/12 02:27:39;;;;;;;10.20;8.25;;;20.00;51.90;;;;;;10396876;28;20041;-50
2024/03/12 02:32:41;;;;;;;10.40;8.07;;;20.00;52.30;;;;;;10387203;28;20098;-50
2024/03/12 02:37:43;;;;;;;10.30;8.32;;;19.90;52.60;;;;;;10387494;28;20052;-49
2024/03/12 02:42:46;;;;;;;9.98;7.95;;;20.10;52.30;;;;;;10393836;28;20080;-50
2024/03/12 02:47:47;;;;;;;10.57;7.97;;;20.00;52.30;;;;;;10399658;28;20042;-53
2024/03/12 02:52:49;;;;;;;10.38;7.97;;;19.80;52.50;;;;;;10402559;28;20134;-49
2024/03/12 02:57:52;;;;;;;10.15;8.00;;;19.70;52.80;;;;;;10400427;28;20572;-55
2024/03/12 03:02:54;;;;;;;12.85;8.07;;;19.70;52.50;;;;;;10399329;28;20495;-48
2024/03/12 03:07:56;;;;;;;9.02;7.43;;;19.70;52.10;;;;;;10396580;28;20072;-48
2024/03/12 03:12:59;;;;;;;9.98;7.90;;;19.80;51.90;;;;;;10396355;28;20056;-51
2024/03/12 03:18:01;;;;;;;9.20;7.25;;;19.80;51.80;;;;;;10392690;28;20046;-55
2024/03/12 03:23:03;;;;;;;9.52;7.40;;;19.70;51.80;;;;;;10400352;28;20049;-52
2024/03/12 03:28:08;;;;;;;9.43;7.53;;;19.60;51.90;;;;;;10395498;28;20057;-63
2024/03/12 03:33:11;;;;;;;7.80;6.95;;;19.50;52.10;;;;;;10396581;28;20121;-55
2024/03/12 03:38:13;;;;;;;9.65;7.43;;;19.50;51.90;;;;;;10389949;28;20058;-54
2024/03/12 03:43:16;;;;;;;9.95;7.57;;;19.40;52.00;;;;;;10389908;28;20045;-53
2024/03/12 03:48:17;;;;;;;9.77;7.22;;;19.40;51.80;;;;;;10394511;28;20136;-54
2024/03/12 03:53:19;;;;;;;9.75;7.53;;;19.40;51.80;;;;;;10390042;28;20060;-52
2024/03/12 03:58:23;;;;;;;8.50;7.35;;;19.40;51.70;;;;;;10396387;28;20521;-52
2024/03/12 04:03:25;;;;;;;8.40;7.50;;;19.30;52.00;;;;;;10400363;28;20096;-54
2024/03/12 04:08:27;;;;;;;7.85;6.63;;;19.80;51.30;;;;;;10400294;28;20049;-51
2024/03/12 04:13:32;;;;;;;8.43;6.60;;;20.40;50.60;;;;;;10397931;28;20129;-57
2024/03/12 04:18:34;;;;;;;7.18;6.30;;;20.90;49.90;;;;;;10397575;28;20096;-52
2024/03/12 04:23:36;;;;;;;7.05;6.05;;;21.30;49.30;;;;;;10394172;28;20058;-55
2024/03/12 04:28:40;;;;;;;6.95;5.80;;;21.60;49.20;;;;;;10397558;28;20049;-53
2024/03/12 04:33:42;;;;;;;7.60;6.03;;;21.70;48.80;;;;;;10395604;28;20059;-56
2024/03/12 04:38:43;;;;;;;7.97;5.70;;;21.80;48.50;;;;;;10400622;28;20045;-52
2024/03/12 04:43:46;;;;;;;6.60;5.90;;;22.00;48.30;;;;;;10401143;28;20049;-52
2024/03/12 04:48:48;;;;;;;5.63;5.00;;;22.10;48.00;;;;;;10397997;28;20148;-53
2024/03/12 04:53:50;;;;;;;6.15;5.55;;;22.30;47.70;;;;;;10398456;28;20135;-53
2024/03/12 04:58:53;;;;;;;5.88;5.20;;;22.20;47.60;;;;;;10400059;28;20050;-55
2024/03/12 05:03:55;;;;;;;5.72;5.18;;;22.30;47.60;;;;;;10399874;28;20129;-53
2024/03/12 05:08:56;;;;;;;5.45;4.95;;;22.30;47.50;;;;;;10389969;28;20074;-51
2024/03/12 05:13:59;;;;;;;5.30;4.80;;;22.40;47.40;;;;;;10363012;28;20045;-55
2024/03/12 05:19:01;;;;;;;4.90;4.40;;;22.40;47.30;;;;;;10403718;28;20873;-52
2024/03/12 05:24:03;;;;;;;5.25;4.75;;;22.50;47.10;;;;;;10407039;28;20573;-56
2024/03/12 05:29:07;;;;;;;6.75;4.63;;;22.50;47.00;;;;;;10406377;28;20045;-56
2024/03/12 05:34:16;;;;;;;4.75;4.30;;;22.60;46.90;;;;;;10403060;28;20132;-50
2024/03/12 05:39:20;;;;;;;7.30;4.47;;;22.70;46.80;;;;;;10376057;28;20499;-50
2024/03/12 05:49:43;;;;;;;6.17;4.07;;;22.50;48.20;;;;;;10400761;28;20046;-49
2024/03/12 05:54:44;;;;;;;4.13;3.72;;;22.50;48.00;;;;;;10376802;28;20047;-53
2024/03/12 05:59:47;;;;;;;8.02;4.10;;;22.50;47.90;;;;;;10368583;28;21526;-54
2024/03/12 06:04:49;;;;;;;3.90;3.50;;;22.40;47.90;;;;;;10402849;28;20049;-59
2024/03/12 06:09:52;;;;;;;4.18;3.72;;;22.50;47.90;;;;;;10397357;28;20114;-60
2024/03/12 06:14:55;;;;;;;5.22;3.60;;;22.40;48.00;;;;;;10393492;28;20679;-58
2024/03/12 06:19:57;;;;;;;5.85;3.60;;;22.40;47.90;;;;;;10399552;28;20045;-55
2024/03/12 06:25:01;;;;;;;9.50;3.80;;;22.40;48.80;;;;;;10400572;28;20144;-59
2024/03/12 06:30:05;;;;;;;7.75;3.88;;;22.30;49.10;;;;;;10397704;28;20128;-59
2024/03/12 06:35:08;;;;;;;22.70;5.93;;;22.30;49.70;;;;;;10401949;28;20046;-60
2024/03/12 06:40:11;;;;;;;35.40;7.88;;;22.30;50.60;;;;;;10397039;28;20041;-60
2024/03/12 06:45:17;;;;;;;29.48;7.25;;;22.30;51.50;;;;;;10398396;28;20041;-60
2024/03/12 06:50:18;;;;;;;24.02;6.90;;;22.30;51.80;;;;;;10392113;28;20061;-60
2024/03/12 06:55:23;;;;;;;20.98;6.22;;;22.20;51.40;;;;;;10399017;28;20480;-57
2024/03/12 07:00:32;;;;;;;21.05;5.95;;;22.10;49.90;;;;;;10388789;28;20605;-55
2024/03/12 07:05:36;;;;;;;12.75;7.85;;;22.10;50.70;;;;;;10391757;28;20042;-59
2024/03/12 07:10:40;;;;;;;12.57;6.72;;;22.00;46.80;;;;;;10391580;28;20052;-59
2024/03/12 07:15:44;;;;;;;14.65;6.88;;;21.70;48.20;;;;;;10392649;28;20041;-59
2024/03/12 07:20:52;;;;;;;14.60;6.28;;;21.60;48.60;;;;;;10393441;28;20500;-59
2024/03/12 07:25:55;;;;;;;8.10;6.13;;;21.50;48.50;;;;;;10389436;28;20096;-57
2024/03/12 07:30:58;;;;;;;10.60;6.85;;;21.30;48.30;;;;;;10389183;28;20073;-57
2024/03/12 07:36:04;;;;;;;11.32;6.40;;;21.40;48.10;;;;;;10395354;28;20037;-57
2024/03/12 07:41:08;;;;;;;11.10;6.90;;;21.30;48.00;;;;;;10392831;28;20129;-58
2024/03/12 07:46:12;;;;;;;7.25;6.00;;;21.20;47.70;;;;;;10398372;28;20510;-56
2024/03/12 07:51:13;;;;;;;10.52;6.75;;;21.20;47.70;;;;;;10400340;28;20046;-56
2024/03/12 07:56:15;;;;;;;6.53;5.93;;;21.20;47.40;;;;;;10398094;28;20095;-59
2024/03/12 08:01:20;;;;;;;9.43;6.47;;;21.20;47.10;;;;;;10394618;28;20240;-57
2024/03/12 08:06:23;;;;;;;7.97;5.18;;;21.20;47.10;;;;;;10387202;28;20046;-59
2024/03/12 08:11:24;;;;;;;6.95;5.22;;;21.50;46.60;;;;;;10388535;28;20041;-59
2024/03/12 08:16:29;;;;;;;5.60;4.70;;;21.70;46.50;;;;;;10391759;28;20132;-58
2024/03/12 08:21:30;;;;;;;6.95;4.20;;;21.70;46.60;;;;;;10393721;28;20048;-60
2024/03/12 08:26:32;;;;;;;4.88;4.13;;;21.80;46.70;;;;;;10395055;28;20065;-58
2024/03/12 08:31:38;;;;;;;4.78;4.20;;;22.10;46.20;;;;;;10393717;28;20073;-59
2024/03/12 08:36:39;;;;;;;4.70;4.13;;;22.30;45.90;;;;;;10395149;28;20081;-60
2024/03/12 08:41:41;;;;;;;4.03;3.47;;;22.40;45.60;;;;;;10393225;28;20128;-59
2024/03/12 08:46:44;;;;;;;5.72;4.13;;;22.60;45.40;;;;;;10388328;28;20468;-60
2024/03/12 08:51:46;;;;;;;4.20;3.80;;;22.70;45.30;;;;;;10396863;28;20045;-56
2024/03/12 08:56:48;;;;;;;4.88;3.80;;;22.70;45.00;;;;;;10396807;28;20479;-60
2024/03/12 09:01:54;;;;;;;3.90;3.50;;;22.60;45.30;;;;;;10399707;28;20041;-59
2024/03/12 09:06:57;;;;;;;3.70;3.33;;;22.50;45.70;;;;;;10399785;28;20447;-60
2024/03/12 09:11:59;;;;;;;4.47;4.07;;;22.50;45.60;;;;;;10397190;28;20100;-60
2024/03/12 09:17:05;;;;;;;5.93;3.80;;;22.70;45.40;;;;;;10398402;28;20132;-58
2024/03/12 09:22:08;;;;;;;4.25;3.40;;;22.80;45.10;;;;;;10394488;28;20038;-59
2024/03/12 09:27:10;;;;;;;4.43;3.85;;;22.80;45.30;;;;;;10404458;28;20049;-60
2024/03/12 09:32:13;;;;;;;3.92;3.42;;;22.70;45.40;;;;;;10400015;28;20136;-59
2024/03/12 09:37:16;;;;;;;4.35;3.60;;;22.80;45.30;;;;;;10399968;28;20137;-60
2024/03/12 09:42:17;;;;;;;4.57;3.30;;;22.70;45.40;;;;;;10397698;28;20103;-57
2024/03/12 09:47:20;;;;;;;4.15;3.72;;;22.60;45.70;;;;;;10400342;28;20046;-60
2024/03/12 09:52:22;;;;;;;3.88;3.33;;;22.70;45.70;;;;;;10398545;28;20057;-60
2024/03/12 09:57:24;;;;;;;3.45;3.15;;;22.70;45.60;;;;;;10397271;28;20531;-59
2024/03/12 10:02:27;;;;;;;4.00;3.42;;;22.70;45.70;;;;;;10399326;28;20041;-60
2024/03/12 10:07:28;;;;;;;3.58;3.15;;;22.70;45.70;;;;;;10401226;28;20047;-59
2024/03/12 10:12:31;;;;;;;3.50;3.13;;;22.80;45.70;;;;;;10401682;28;20117;-58
2024/03/12 10:17:34;;;;;;;3.53;3.22;;;22.80;45.60;;;;;;10401806;28;20116;-60
2024/03/12 10:22:38;;;;;;;3.55;3.22;;;22.70;45.70;;;;;;10401446;28;20050;-59
2024/03/12 10:27:51;;;;;;;4.00;3.20;;;22.70;45.70;;;;;;10396326;28;20049;-59
2024/03/12 10:32:55;;;;;;;4.30;2.80;;;22.80;45.50;;;;;;10397522;28;20124;-57
2024/03/12 10:37:56;;;;;;;3.40;3.10;;;22.90;45.60;;;;;;10403476;28;20041;-60
2024/03/12 10:43:00;;;;;;;3.30;3.00;;;22.70;45.90;;;;;;10403752;28;20069;-59
2024/03/12 10:48:06;;;;;;;3.00;2.80;;;22.80;46.50;;;;;;10395052;28;20495;-59
2024/03/12 10:53:07;;;;;;;3.70;3.00;;;22.90;45.70;;;;;;10393645;28;20056;-63
2024/03/12 10:58:10;;;;;;;2.92;2.70;;;22.80;45.70;;;;;;10395042;28;20397;-59
2024/03/12 11:03:15;;;;;;;3.10;2.80;;;22.80;45.90;;;;;;10391405;28;20048;-58
2024/03/12 11:08:18;;;;;;;4.45;2.80;;;23.00;45.60;;;;;;10400354;28;20108;-58
2024/03/12 11:13:20;;;;;;;3.42;2.92;;;22.90;45.70;;;;;;10400144;28;20128;-58
2024/03/12 11:18:36;;;;;;;2.85;2.55;;;22.90;45.60;;;;;;10402342;28;20522;-59
2024/03/12 11:23:37;;;;;;;3.25;2.78;;;23.00;45.70;;;;;;10403125;28;20164;-58
2024/03/12 11:28:48;;;;;;;2.67;2.47;;;23.00;45.80;;;;;;10398826;28;20071;-60
2024/03/12 11:33:51;;;;;;;2.92;2.55;;;23.00;45.60;;;;;;10398468;28;20052;-58
2024/03/12 11:38:54;;;;;;;2.88;2.53;;;22.90;45.80;;;;;;10391729;28;20065;-60
2024/03/12 11:43:55;;;;;;;2.70;2.40;;;22.80;46.10;;;;;;10360502;28;20305;-59
2024/03/12 11:48:58;;;;;;;2.40;2.20;;;22.50;46.70;;;;;;10354845;28;20132;-59
2024/03/12 11:54:02;;;;;;;3.15;2.30;;;22.40;47.10;;;;;;10361777;28;20655;-59
2024/03/12 11:59:05;;;;;;;4.72;2.78;;;22.30;47.40;;;;;;10396034;28;20466;-60
2024/03/12 12:04:10;;;;;;;4.40;2.33;;;22.60;47.00;;;;;;10392694;28;20053;-60
2024/03/12 12:09:13;;;;;;;2.80;2.60;;;22.80;46.60;;;;;;10382571;28;20050;-60
2024/03/12 12:14:17;;;;;;;3.05;2.35;;;22.90;46.30;;;;;;10349777;28;20050;-60
2024/03/12 12:19:21;;;;;;;3.65;2.45;;;23.10;46.30;;;;;;10354234;28;20045;-58
2024/03/12 12:24:24;;;;;;;2.85;2.50;;;23.10;46.10;;;;;;10363511;28;20046;-59
2024/03/12 12:29:26;;;;;;;2.80;2.47;;;23.20;45.90;;;;;;10396992;28;20072;-58
2024/03/12 12:34:29;;;;;;;2.13;1.92;;;23.10;46.80;;;;;;10390135;28;20048;-59
2024/03/12 12:39:34;;;;;;;4.28;2.72;;;23.20;46.30;;;;;;10354121;28;20061;-60
2024/03/12 12:44:35;;;;;;;4.75;3.08;;;23.20;46.20;;;;;;10353116;28;20062;-60
2024/03/12 12:49:40;;;;;;;8.05;3.60;;;23.20;46.50;;;;;;10371687;28;20137;-58
2024/03/12 12:54:42;;;;;;;7.43;3.75;;;23.20;46.50;;;;;;10405078;28;20053;-59
2024/03/12 12:59:55;;;;;;;9.88;3.67;;;23.20;46.60;;;;;;10395289;28;20037;-59
2024/03/12 13:04:58;;;;;;;6.93;3.75;;;23.20;46.90;;;;;;10403282;28;20069;-59
2024/03/12 13:10:14;;;;;;;11.38;4.40;;;23.10;47.30;;;;;;10403861;28;20046;-57
2024/03/12 13:15:25;;;;;;;6.50;3.45;;;23.00;47.40;;;;;;10398762;28;20065;-59
2024/03/12 13:20:28;;;;;;;6.97;4.10;;;22.90;47.50;;;;;;10403412;28;20045;-58
2024/03/12 13:25:30;;;;;;;8.23;4.07;;;22.90;47.70;;;;;;10395390;28;20051;-58
2024/03/12 13:30:33;;;;;;;6.05;3.53;;;23.00;47.50;;;;;;10399784;28;20066;-59
2024/03/12 13:35:36;;;;;;;6.18;3.65;;;22.90;47.70;;;;;;10398956;28;20045;-57
2024/03/12 13:40:37;;;;;;;7.07;3.50;;;23.10;47.40;;;;;;10399231;28;20141;-59
2024/03/12 13:45:40;;;;;;;7.30;4.00;;;22.90;47.70;;;;;;10401003;28;20045;-59
2024/03/12 13:50:43;;;;;;;5.85;3.53;;;22.90;47.60;;;;;;10403184;28;20470;-59
2024/03/12 13:55:45;;;;;;;4.20;3.38;;;22.70;48.20;;;;;;10402277;28;20089;-59
2024/03/12 14:00:47;;;;;;;6.68;4.13;;;22.50;48.70;;;;;;10398118;28;20046;-59
2024/03/12 14:05:50;;;;;;;6.00;3.65;;;22.50;48.60;;;;;;10399287;28;20460;-58
2024/03/12 14:10:52;;;;;;;6.50;3.25;;;22.70;47.90;;;;;;10401676;28;20045;-59
2024/03/12 14:15:54;;;;;;;6.28;3.38;;;22.80;47.90;;;;;;10403164;28;20060;-59
2024/03/12 14:20:57;;;;;;;4.97;3.28;;;22.80;47.50;;;;;;10402373;28;20073;-59
2024/03/12 14:25:59;;;;;;;6.93;3.40;;;22.70;47.60;;;;;;10373116;28;20155;-59
2024/03/12 14:31:00;;;;;;;5.75;3.55;;;22.80;47.40;;;;;;10355434;28;20116;-59
2024/03/12 14:36:04;;;;;;;5.25;3.50;;;22.80;47.10;;;;;;10378364;28;20132;-59
2024/03/12 14:41:06;;;;;;;5.95;3.20;;;22.40;48.10;;;;;;10393702;28;20050;-59
2024/03/12 14:46:08;;;;;;;5.57;3.35;;;22.30;48.60;;;;;;10400800;28;20049;-57
2024/03/12 14:51:11;;;;;;;9.65;3.58;;;22.30;48.50;;;;;;10373836;28;20125;-59
2024/03/12 14:56:12;;;;;;;5.88;4.20;;;22.60;48.70;;;;;;10361299;28;20504;-57
2024/03/12 15:01:14;;;;;;;7.75;3.67;;;22.60;48.40;;;;;;10361909;28;20128;-59
2024/03/12 15:06:18;;;;;;;7.30;3.90;;;22.40;48.80;;;;;;10358893;28;20106;-60
2024/03/12 15:11:20;;;;;;;14.63;3.80;;;22.40;49.30;;;;;;10387525;28;20496;-54
2024/03/12 15:16:22;;;;;;;7.78;3.20;;;22.40;50.10;;;;;;10370879;28;20061;-54
2024/03/12 15:21:26;;;;;;;8.45;3.42;;;22.40;51.40;;;;;;10355490;28;20045;-56
2024/03/12 15:26:30;;;;;;;6.35;3.10;;;22.50;52.30;;;;;;10372038;28;20104;-56
2024/03/12 15:31:31;;;;;;;9.13;2.88;;;22.70;52.00;;;;;;10396868;28;20061;-57
2024/03/12 15:36:34;;;;;;;7.35;3.35;;;22.70;51.90;;;;;;10399001;28;20046;-55
2024/03/12 15:41:36;;;;;;;6.93;2.70;;;22.70;51.60;;;;;;10370828;28;20053;-59
2024/03/12 15:46:38;;;;;;;8.27;3.13;;;22.70;51.30;;;;;;10385523;28;20076;-50
2024/03/12 15:51:41;;;;;;;22.27;3.58;;;22.70;51.20;;;;;;10393306;28;20041;-54
2024/03/12 15:56:44;;;;;;;5.38;2.70;;;22.70;52.60;;;;;;10394748;28;20128;-56
2024/03/12 16:01:46;;;;;;;13.27;3.30;;;22.60;52.50;;;;;;10395142;28;20043;-54
2024/03/12 16:06:49;;;;;;;9.18;2.88;;;22.80;52.00;;;;;;10396436;28;20160;-61
2024/03/12 16:11:52;;;;;;;13.60;3.10;;;23.00;51.30;;;;;;10399081;28;20111;-62
2024/03/12 16:16:53;;;;;;;10.13;2.58;;;22.90;51.00;;;;;;10399104;28;20065;-54
2024/03/12 16:22:00;;;;;;;7.82;2.80;;;23.00;51.20;;;;;;10400479;28;20128;-56
2024/03/12 16:27:03;;;;;;;7.93;2.67;;;23.00;50.50;;;;;;10403832;28;20431;-54
2024/03/12 16:32:07;;;;;;;6.88;2.33;;;22.90;50.30;;;;;;10403003;28;20042;-57
2024/03/12 16:37:10;;;;;;;6.97;2.38;;;22.90;50.20;;;;;;10404461;28;20103;-56
2024/03/12 16:42:12;;;;;;;4.00;2.50;;;22.90;50.10;;;;;;10399434;28;20160;-56
2024/03/12 16:47:14;;;;;;;5.88;2.35;;;23.00;49.80;;;;;;10403347;28;20046;-59
2024/03/12 16:52:17;;;;;;;7.65;2.30;;;22.90;49.70;;;;;;10398179;28;20401;-55
2024/03/12 16:57:19;;;;;;;3.60;2.28;;;22.90;49.90;;;;;;10399890;28;20136;-52
2024/03/12 17:02:21;;;;;;;4.40;2.72;;;22.90;49.80;;;;;;10396527;28;20136;-56
2024/03/12 17:07:25;;;;;;;2.90;2.20;;;23.00;49.50;;;;;;10399682;28;20453;-56
2024/03/12 17:12:29;;;;;;;9.25;2.30;;;22.90;49.60;;;;;;10403774;28;20144;-58
2024/03/12 17:17:30;;;;;;;3.63;2.00;;;22.90;49.70;;;;;;10400787;28;20133;-56
2024/03/12 17:22:34;;;;;;;3.75;1.90;;;22.90;49.80;;;;;;10402068;28;20480;-56
2024/03/12 17:27:36;;;;;;;2.83;2.15;;;23.10;49.30;;;;;;10399640;28;20056;-58
2024/03/12 17:32:39;;;;;;;4.40;1.95;;;23.10;49.10;;;;;;10405959;28;20046;-58
2024/03/12 17:37:43;;;;;;;2.63;1.98;;;23.30;48.70;;;;;;10400623;28;20092;-60
2024/03/12 17:42:45;;;;;;;9.32;2.20;;;23.10;48.90;;;;;;10400114;28;20068;-59
2024/03/12 17:47:48;;;;;;;4.03;1.85;;;22.90;49.30;;;;;;10360964;28;20072;-58
2024/03/12 17:52:52;;;;;;;4.20;2.22;;;23.10;49.70;;;;;;10359150;28;20058;-57
2024/03/12 17:57:53;;;;;;;18.67;3.10;;;22.80;50.50;;;;;;10356818;28;20046;-58
2024/03/12 18:02:56;;;;;;;12.82;2.67;;;22.70;51.00;;;;;;10393069;28;20044;-57
2024/03/12 18:08:01;;;;;;;8.93;2.72;;;22.80;50.90;;;;;;10401971;28;20076;-59
2024/03/12 18:13:04;;;;;;;6.68;2.33;;;22.90;50.50;;;;;;10393584;28;20046;-55
2024/03/12 18:18:05;;;;;;;7.97;1.98;;;22.80;51.00;;;;;;10398881;28;20174;-52
2024/03/12 18:23:08;;;;;;;11.80;2.60;;;22.80;51.00;;;;;;10394958;28;20095;-56
2024/03/12 18:28:10;;;;;;;9.10;2.33;;;23.00;50.40;;;;;;10402429;28;20120;-54
2024/03/12 18:33:12;;;;;;;8.68;2.10;;;22.80;51.80;;;;;;10397249;28;20129;-55
2024/03/12 18:38:15;;;;;;;4.47;2.10;;;22.70;52.10;;;;;;10398836;28;20491;-54
2024/03/12 18:43:17;;;;;;;21.45;2.50;;;22.80;52.10;;;;;;10399802;28;20046;-49
2024/03/12 18:48:20;;;;;;;9.55;2.45;;;22.90;51.90;;;;;;10399881;28;20169;-53
2024/03/12 18:53:24;;;;;;;8.48;2.30;;;22.90;51.60;;;;;;10391961;28;20049;-53
2024/03/12 18:58:27;;;;;;;4.70;2.22;;;23.00;51.00;;;;;;10402265;28;20449;-55
2024/03/12 19:03:32;;;;;;;5.28;2.33;;;23.10;50.50;;;;;;10398501;28;20069;-54
2024/03/12 19:08:37;;;;;;;4.97;2.83;;;23.00;50.40;;;;;;10391579;28;20041;-50
2024/03/12 19:13:39;;;;;;;8.40;2.13;;;23.00;50.70;;;;;;10397140;28;20132;-55
2024/03/12 19:18:43;;;;;;;3.45;2.40;;;23.00;51.20;;;;;;10393669;28;20137;-52
2024/03/12 19:23:48;;;;;;;3.58;2.20;;;23.00;51.30;;;;;;10399134;28;20073;-55
2024/03/12 19:28:52;;;;;;;4.43;1.92;;;22.90;51.90;;;;;;10392293;28;20053;-58
2024/03/12 19:33:53;;;;;;;4.70;1.80;;;22.90;52.10;;;;;;10401161;28;20133;-60
2024/03/12 19:38:57;;;;;;;5.60;2.38;;;23.00;52.10;;;;;;10400517;28;20050;-55
2024/03/12 19:43:59;;;;;;;5.25;2.17;;;23.10;52.20;;;;;;10399463;28;20060;-53
2024/03/12 19:49:02;;;;;;;4.95;2.00;;;23.40;51.60;;;;;;10398680;28;20054;-51
2024/03/12 19:54:06;;;;;;;4.00;1.90;;;23.20;51.80;;;;;;10398725;28;20049;-51
2024/03/12 19:59:09;;;;;;;5.85;2.10;;;23.30;51.90;;;;;;10390404;28;20046;-55
2024/03/12 20:04:12;;;;;;;9.38;2.45;;;23.30;52.00;;;;;;10398125;28;20403;-52
2024/03/12 20:09:22;;;;;;;5.93;2.22;;;23.40;51.80;;;;;;10393330;28;20045;-56
2024/03/12 20:14:27;;;;;;;11.23;2.10;;;23.30;51.90;;;;;;10398230;28;20053;-57
2024/03/12 20:19:30;;;;;;;5.63;1.95;;;23.00;52.30;;;;;;10394980;28;20069;-52
2024/03/12 20:24:33;;;;;;;8.50;3.70;;;22.80;52.60;;;;;;10395338;28;20058;-51
2024/03/12 20:29:36;;;;;;;11.32;4.53;;;22.80;52.90;;;;;;10400612;28;20037;-54
2024/03/12 20:34:41;;;;;;;41.58;5.38;;;23.00;52.40;;;;;;10399989;28;20050;-53
2024/03/12 20:39:44;;;;;;;15.07;6.93;;;23.00;52.20;;;;;;10391685;28;20757;-51
2024/03/12 20:44:45;;;;;;;18.60;7.68;;;22.80;52.20;;;;;;10393448;28;20071;-54
2024/03/12 20:49:47;;;;;;;25.00;9.23;;;23.00;52.40;;;;;;10396321;28;20120;-54
2024/03/12 20:54:52;;;;;;;21.55;11.75;;;22.90;53.40;;;;;;10402315;28;20593;-52
2024/03/12 20:59:54;;;;;;;20.85;12.50;;;22.90;53.00;;;;;;10395891;28;20458;-55
2024/03/12 21:04:56;;;;;;;23.77;12.55;;;22.50;53.40;;;;;;10397676;28;20042;-51
2024/03/12 21:09:58;;;;;;;22.58;12.65;;;22.30;53.80;;;;;;10398625;28;20516;-52
2024/03/12 21:15:06;;;;;;;19.10;11.35;;;22.30;53.50;;;;;;10399737;28;20537;-54
2024/03/12 21:20:17;;;;;;;20.60;11.32;;;22.10;53.50;;;;;;10398835;28;20037;-50
2024/03/12 21:25:21;;;;;;;18.20;11.68;;;22.00;53.70;;;;;;10401960;28;20045;-51
2024/03/12 21:30:22;;;;;;;16.65;11.35;;;21.90;53.70;;;;;;10398342;28;20566;-50
2024/03/12 21:35:24;;;;;;;19.10;11.65;;;21.90;53.60;;;;;;10397230;28;20124;-53
2024/03/12 21:40:29;;;;;;;20.67;11.80;;;21.80;53.40;;;;;;10396430;28;20463;-54
2024/03/12 21:45:35;;;;;;;20.65;12.25;;;21.90;53.20;;;;;;10399981;28;20050;-53
2024/03/12 21:50:36;;;;;;;18.70;11.32;;;21.70;53.20;;;;;;10394474;28;20522;-54
2024/03/12 21:55:39;;;;;;;15.43;10.98;;;21.80;53.10;;;;;;10395471;28;20049;-54
2024/03/12 22:00:41;;;;;;;16.98;11.18;;;21.80;52.90;;;;;;10388457;28;20457;-51
2024/03/12 22:05:42;;;;;;;17.05;11.30;;;21.80;52.80;;;;;;10405471;28;20079;-53
2024/03/12 22:10:46;;;;;;;18.17;11.80;;;21.60;52.90;;;;;;10399166;28;20060;-51
2024/03/12 22:15:51;;;;;;;17.30;11.05;;;21.60;53.00;;;;;;10396125;28;20076;-50
2024/03/12 22:20:52;;;;;;;18.45;11.45;;;21.60;52.90;;;;;;10395756;28;20553;-51
2024/03/12 22:25:56;;;;;;;17.80;10.80;;;21.50;52.90;;;;;;10393726;28;20157;-50
2024/03/12 22:30:57;;;;;;;17.98;10.93;;;21.70;52.50;;;;;;10398246;28;20056;-50
2024/03/12 22:35:59;;;;;;;16.50;10.73;;;21.70;52.30;;;;;;10395916;28;20056;-54
2024/03/12 22:41:03;;;;;;;15.10;10.52;;;21.60;52.10;;;;;;10398110;28;20134;-50
2024/03/12 22:46:06;;;;;;;15.10;9.95;;;21.70;52.00;;;;;;10397090;28;20037;-50
2024/03/12 22:51:08;;;;;;;14.80;10.30;;;21.60;52.00;;;;;;10394995;28;20056;-54
2024/03/12 22:56:17;;;;;;;16.10;10.75;;;21.50;52.10;;;;;;10393842;28;20415;-51
2024/03/12 23:01:19;;;;;;;15.48;10.60;;;21.60;52.00;;;;;;10399117;28;20046;-56
2024/03/12 23:06:21;;;;;;;14.30;9.77;;;21.60;51.70;;;;;;10393472;28;20128;-52
2024/03/12 23:11:26;;;;;;;13.52;9.70;;;21.50;51.90;;;;;;10387111;28;20080;-51
2024/03/12 23:16:28;;;;;;;14.27;10.35;;;21.30;52.20;;;;;;10399985;28;20108;-54
2024/03/12 23:21:30;;;;;;;15.05;9.82;;;21.40;52.00;;;;;;10400447;28;20057;-50
2024/03/12 23:26:32;;;;;;;15.07;10.00;;;21.20;52.20;;;;;;10395988;28;20050;-52
2024/03/12 23:31:34;;;;;;;13.27;9.65;;;21.20;52.30;;;;;;10396587;28;20125;-54
2024/03/12 23:36:36;;;;;;;15.45;9.60;;;21.20;52.00;;;;;;10397180;28;20136;-50
2024/03/12 23:41:39;;;;;;;15.07;9.48;;;21.10;52.40;;;;;;10388147;28;20057;-50
2024/03/12 23:46:44;;;;;;;16.02;9.55;;;21.00;52.30;;;;;;10394568;28;20663;-51
2024/03/12 23:51:46;;;;;;;14.80;9.05;;;20.90;52.40;;;;;;10389322;28;20067;-51
2024/03/12 23:56:51;;;;;;;15.02;9.40;;;20.90;52.40;;;;;;10393735;28;20128;-55
